Skip to main content
MEDX logo

MEDX · Horizon Kinetics Medical ETF ETF

Alerts for MEDX
$36.69 -0.39 (-1.06%) At close · Sep 4

Shares sold short and not yet covered, reported twice monthly. Days to cover is the reported short position divided by average daily volume.

MEDX Latest Reported Short Interest

FINRA reported 2,254 MEDX shares sold short as of the August 14, 2026 settlement date, an increase of 367 shares. Days to cover was 2.18 based on FINRA's reported average daily volume.

Official FINRA short-interest data · share counts are restated for subsequent splits of this listing

Short Interest History

Settlement Date Current Position Previous Position Change Days to Cover
2026-09-15 Scheduled
FINRA publishes Sep 24
2026-08-31 Scheduled
FINRA publishes Sep 10
2026-08-14 2,254 1,887 +367 2.18
2026-07-31 1,887 1,884 +3 1.00
2026-07-15 1,884 1,915 -31 1.00
2026-06-30 1,915 1,932 -17 1.20
2026-06-15 1,932 2,254 -322 1.08
2026-05-29 2,254 2,750 -496 1.70
2026-05-15 2,750 3,422 -672 3.91
2026-04-30 3,422 3,320 +102 3.26
2026-04-15 3,320 4,327 -1,007 1.76
2026-03-31 4,327 3,597 +730 1.80
2026-03-13 3,597 2,418 +1,179 1.00
2026-02-27 2,418 680 +1,738 2.08
2026-02-13 680 329 +351 1.00
2026-01-30 329 188 +141 1.00
2026-01-15 188 1,180 -992 1.00
2025-12-31 1,180 1,094 +86 1.23
2025-12-15 1,094 1,280 -186 1.62
2025-11-28 1,280 102 +1,178 1.41
2025-11-14 102 209 -107 1.00
2025-10-31 209 214 -5 1.00
2025-10-15 214 177 +37 1.00
2025-09-30 177 2 +175 1.00
2025-09-15 2 21 -19 1.00

Full FINRA short interest reporting calendar

Showing 1–23 of 23 settlements